Time,TemperatureF,DewpointF,PressureIn,WindDirection,WindDirectionDegrees,WindSpeedMPH,WindSpeedGustMPH,Humidity,HourlyPrecipIn,Conditions,Clouds,dailyrainin,SoftwareType,DateUTC
2013-04-11 00:00:00,34.4,20.3,29.91,ENE,68,0.0,0.0,56,0.00,,---,0.00,VWS V14.01,2013-04-11 06:00:00,
2013-04-11 00:05:00,34.2,19.7,29.91,ENE,68,0.0,0.0,55,0.00,,---,0.00,VWS V14.01,2013-04-11 06:05:00,
2013-04-11 00:10:00,34.4,20.3,29.91,ENE,68,0.0,0.0,56,0.00,,---,0.00,VWS V14.01,2013-04-11 06:10:00,
2013-04-11 00:15:00,34.6,20.5,29.91,NE,45,0.9,0.9,56,0.00,,---,0.00,VWS V14.01,2013-04-11 06:15:00,
2013-04-11 00:20:00,34.4,20.3,29.91,ENE,68,0.0,0.0,56,0.00,,---,0.00,VWS V14.01,2013-04-11 06:20:00,
2013-04-11 00:25:00,34.0,20.4,29.91,ENE,68,0.2,0.2,57,0.00,,---,0.00,VWS V14.01,2013-04-11 06:25:00,
2013-04-11 00:30:00,33.8,21.0,29.91,ENE,68,0.0,0.0,59,0.00,,---,0.00,VWS V14.01,2013-04-11 06:30:00,
2013-04-11 00:35:00,33.8,20.6,29.90,ENE,68,0.0,0.0,58,0.00,,---,0.00,VWS V14.01,2013-04-11 06:35:00,
2013-04-11 00:40:00,33.7,20.1,29.90,NE,45,0.4,0.4,57,0.00,,---,0.00,VWS V14.01,2013-04-11 06:40:00,
2013-04-11 00:45:00,33.5,20.3,29.90,NE,45,0.0,0.0,58,0.00,,---,0.00,VWS V14.01,2013-04-11 06:45:00,
2013-04-11 00:50:00,33.1,19.5,29.90,NE,45,0.0,0.0,57,0.00,,---,0.00,VWS V14.01,2013-04-11 06:50:00,
2013-04-11 00:55:00,33.1,20.4,29.90,ENE,68,0.4,0.4,59,0.00,,---,0.00,VWS V14.01,2013-04-11 06:55:00,
2013-04-11 01:00:00,33.5,20.7,29.89,ENE,68,0.0,0.0,59,0.00,,---,0.00,VWS V14.01,2013-04-11 07:00:00,
2013-04-11 01:05:00,33.3,20.1,29.89,ENE,68,0.0,0.0,58,0.00,,---,0.00,VWS V14.01,2013-04-11 07:05:00,
2013-04-11 01:10:00,33.1,20.7,29.89,SE,135,0.4,0.4,60,0.00,,---,0.00,VWS V14.01,2013-04-11 07:10:00,
2013-04-11 01:15:00,33.5,21.1,29.89,SE,135,0.0,0.0,60,0.00,,---,0.00,VWS V14.01,2013-04-11 07:15:00,
2013-04-11 01:20:00,33.3,20.1,29.89,SE,135,0.0,0.0,58,0.00,,---,0.00,VWS V14.01,2013-04-11 07:20:00,
2013-04-11 01:25:00,32.8,19.7,29.89,SE,135,0.0,0.0,58,0.00,,---,0.00,VWS V14.01,2013-04-11 07:25:00,
2013-04-11 01:30:00,32.9,20.9,29.89,SE,135,0.4,0.4,61,0.00,,---,0.00,VWS V14.01,2013-04-11 07:30:00,
2013-04-11 01:35:00,33.5,20.7,29.89,ESE,112,0.7,0.7,59,0.00,,---,0.00,VWS V14.01,2013-04-11 07:35:00,
2013-04-11 01:40:00,33.8,20.6,29.89,SE,135,0.7,0.7,58,0.00,,---,0.00,VWS V14.01,2013-04-11 07:40:00,
2013-04-11 01:45:00,33.8,20.2,29.89,ESE,112,0.9,0.9,57,0.00,,---,0.00,VWS V14.01,2013-04-11 07:45:00,
2013-04-11 01:50:00,33.8,20.2,29.88,ESE,112,0.0,0.0,57,0.00,,---,0.00,VWS V14.01,2013-04-11 07:50:00,
2013-04-11 01:55:00,33.5,19.9,29.88,ESE,112,0.0,0.0,57,0.00,,---,0.00,VWS V14.01,2013-04-11 07:55:00,
2013-04-11 02:00:00,33.1,19.5,29.88,ENE,68,0.7,0.7,57,0.00,,---,0.00,VWS V14.01,2013-04-11 08:00:00,
2013-04-11 02:05:00,32.8,20.1,29.88,ENE,68,0.4,0.4,59,0.00,,---,0.00,VWS V14.01,2013-04-11 08:05:00,
2013-04-11 02:10:00,32.6,20.3,29.88,ENE,68,0.0,0.0,60,0.00,,---,0.00,VWS V14.01,2013-04-11 08:10:00,
2013-04-11 02:15:00,32.0,19.3,29.88,ENE,68,0.0,0.0,59,0.00,,---,0.00,VWS V14.01,2013-04-11 08:15:00,
2013-04-11 02:20:00,31.7,19.8,29.88,ENE,68,0.4,0.4,61,0.00,,---,0.00,VWS V14.01,2013-04-11 08:20:00,
2013-04-11 02:25:00,31.5,20.0,29.88,ENE,68,0.0,0.0,62,0.00,,---,0.00,VWS V14.01,2013-04-11 08:25:00,
2013-04-11 02:30:00,31.5,20.0,29.88,NE,45,0.9,0.9,62,0.00,,---,0.00,VWS V14.01,2013-04-11 08:30:00,
2013-04-11 02:35:00,31.7,20.2,29.88,NE,45,1.1,1.1,62,0.00,,---,0.00,VWS V14.01,2013-04-11 08:35:00,
2013-04-11 02:40:00,31.5,20.4,29.88,NNE,22,0.2,0.2,63,0.00,,---,0.00,VWS V14.01,2013-04-11 08:40:00,
2013-04-11 02:45:00,31.5,20.7,29.88,NNE,22,0.9,0.9,64,0.00,,---,0.00,VWS V14.01,2013-04-11 08:45:00,
2013-04-11 02:50:00,31.9,21.1,29.88,NNE,22,0.4,0.4,64,0.00,,---,0.00,VWS V14.01,2013-04-11 08:50:00,
2013-04-11 02:55:00,31.9,20.8,29.87,NE,45,0.2,0.2,63,0.00,,---,0.00,VWS V14.01,2013-04-11 08:55:00,
2013-04-11 03:00:00,31.7,20.2,29.87,NE,45,0.0,0.0,62,0.00,,---,0.00,VWS V14.01,2013-04-11 09:00:00,
2013-04-11 03:05:00,31.3,20.2,29.87,NE,45,0.4,0.4,63,0.00,,---,0.00,VWS V14.01,2013-04-11 09:05:00,
2013-04-11 03:10:00,31.3,20.2,29.87,NNE,22,0.4,0.9,63,0.00,,---,0.00,VWS V14.01,2013-04-11 09:10:00,
2013-04-11 03:15:00,31.5,20.0,29.87,North,0,0.7,0.7,62,0.00,,---,0.00,VWS V14.01,2013-04-11 09:15:00,
2013-04-11 03:20:00,32.4,19.7,29.87,NNW,338,1.3,1.3,59,0.00,,---,0.00,VWS V14.01,2013-04-11 09:20:00,
2013-04-11 03:25:00,33.1,19.1,29.87,North,0,2.7,2.7,56,0.00,,---,0.00,VWS V14.01,2013-04-11 09:25:00,
2013-04-11 03:30:00,33.7,18.4,29.87,NNW,338,1.6,1.6,53,0.00,,---,0.00,VWS V14.01,2013-04-11 09:30:00,
2013-04-11 03:35:00,34.4,17.2,29.87,West,270,4.3,4.3,49,0.00,,---,0.00,VWS V14.01,2013-04-11 09:35:00,
2013-04-11 03:40:00,34.9,16.7,29.87,NW,315,3.4,3.4,47,0.00,,---,0.00,VWS V14.01,2013-04-11 09:40:00,
2013-04-11 03:45:00,35.3,16.1,29.86,NW,315,1.1,1.1,45,0.00,,---,0.00,VWS V14.01,2013-04-11 09:45:00,
2013-04-11 03:50:00,35.1,15.9,29.87,NW,315,2.2,2.2,45,0.00,,---,0.00,VWS V14.01,2013-04-11 09:50:00,
2013-04-11 03:55:00,35.1,15.9,29.87,North,0,1.1,1.1,45,0.00,,---,0.00,VWS V14.01,2013-04-11 09:55:00,
2013-04-11 04:00:00,34.9,16.2,29.87,NNW,338,0.2,0.2,46,0.00,,---,0.00,VWS V14.01,2013-04-11 10:00:00,
2013-04-11 04:05:00,34.6,16.0,29.87,WNW,292,0.2,0.2,46,0.00,,---,0.00,VWS V14.01,2013-04-11 10:05:00,
2013-04-11 04:10:00,34.4,15.8,29.87,NNE,22,2.0,2.0,46,0.00,,---,0.00,VWS V14.01,2013-04-11 10:10:00,
2013-04-11 04:15:00,34.2,16.1,29.87,North,0,2.9,2.9,47,0.00,,---,0.00,VWS V14.01,2013-04-11 10:15:00,
2013-04-11 04:20:00,34.0,15.9,29.87,NNW,338,0.2,0.2,47,0.00,,---,0.00,VWS V14.01,2013-04-11 10:20:00,
2013-04-11 04:25:00,33.7,16.1,29.86,NNE,22,1.1,1.1,48,0.00,,---,0.00,VWS V14.01,2013-04-11 10:25:00,
2013-04-11 04:30:00,33.5,15.9,29.86,NE,45,2.2,2.2,48,0.00,,---,0.00,VWS V14.01,2013-04-11 10:30:00,
2013-04-11 04:35:00,33.5,16.4,29.86,North,0,1.1,1.1,49,0.00,,---,0.00,VWS V14.01,2013-04-11 10:35:00,
2013-04-11 04:40:00,33.5,16.4,29.87,NNW,338,0.4,0.4,49,0.00,,---,0.00,VWS V14.01,2013-04-11 10:40:00,
2013-04-11 04:45:00,33.3,16.2,29.86,WNW,292,0.9,0.9,49,0.00,,---,0.00,VWS V14.01,2013-04-11 10:45:00,
2013-04-11 04:50:00,32.9,16.3,29.86,ENE,68,0.7,0.7,50,0.00,,---,0.00,VWS V14.01,2013-04-11 10:50:00,
2013-04-11 04:55:00,32.9,16.3,29.86,ENE,68,0.9,0.9,50,0.00,,---,0.00,VWS V14.01,2013-04-11 10:55:00,
2013-04-11 05:00:00,32.8,16.7,29.86,ENE,68,0.0,0.0,51,0.00,,---,0.00,VWS V14.01,2013-04-11 11:00:00,
2013-04-11 05:05:00,32.4,15.9,29.87,ENE,68,0.0,0.0,50,0.00,,---,0.00,VWS V14.01,2013-04-11 11:05:00,
2013-04-11 05:10:00,31.7,16.1,29.87,ENE,68,0.0,0.0,52,0.00,,---,0.00,VWS V14.01,2013-04-11 11:10:00,
2013-04-11 05:15:00,31.5,15.9,29.87,ENE,68,0.0,0.0,52,0.00,,---,0.00,VWS V14.01,2013-04-11 11:15:00,
2013-04-11 05:20:00,31.3,15.7,29.87,ENE,68,0.0,0.0,52,0.00,,---,0.00,VWS V14.01,2013-04-11 11:20:00,
2013-04-11 05:25:00,31.1,16.8,29.87,ENE,68,0.0,0.0,55,0.00,,---,0.00,VWS V14.01,2013-04-11 11:25:00,
2013-04-11 05:30:00,31.1,17.2,29.87,ENE,68,0.2,0.2,56,0.00,,---,0.00,VWS V14.01,2013-04-11 11:30:00,
2013-04-11 05:35:00,31.1,17.2,29.88,ENE,68,0.0,0.0,56,0.00,,---,0.00,VWS V14.01,2013-04-11 11:35:00,
2013-04-11 05:40:00,31.0,17.6,29.88,ENE,68,0.7,0.7,57,0.00,,---,0.00,VWS V14.01,2013-04-11 11:40:00,
2013-04-11 05:45:00,31.3,17.4,29.87,East,90,0.0,0.0,56,0.00,,---,0.00,VWS V14.01,2013-04-11 11:45:00,
2013-04-11 05:50:00,31.3,17.4,29.87,ESE,112,0.0,0.0,56,0.00,,---,0.00,VWS V14.01,2013-04-11 11:50:00,
2013-04-11 05:55:00,31.1,16.8,29.87,ESE,112,0.0,0.0,55,0.00,,---,0.00,VWS V14.01,2013-04-11 11:55:00,
2013-04-11 06:00:00,30.4,16.2,29.87,ESE,112,0.0,0.0,55,0.00,,---,0.00,VWS V14.01,2013-04-11 12:00:00,
2013-04-11 06:05:00,29.9,16.1,29.87,ESE,112,0.0,0.0,56,0.00,,---,0.00,VWS V14.01,2013-04-11 12:05:00,
2013-04-11 06:10:00,29.7,16.4,29.88,ESE,112,0.0,0.0,57,0.00,,---,0.00,VWS V14.01,2013-04-11 12:10:00,
2013-04-11 06:15:00,29.7,17.1,29.88,SSE,158,0.0,0.0,59,0.00,,---,0.00,VWS V14.01,2013-04-11 12:15:00,
2013-04-11 06:20:00,29.9,17.3,29.88,SSE,158,0.0,0.0,59,0.00,,---,0.00,VWS V14.01,2013-04-11 12:20:00,
2013-04-11 06:25:00,29.9,17.3,29.88,SSE,158,0.0,0.0,59,0.00,,---,0.00,VWS V14.01,2013-04-11 12:25:00,
2013-04-11 06:30:00,30.2,18.0,29.88,WSW,248,0.0,0.0,60,0.00,,---,0.00,VWS V14.01,2013-04-11 12:30:00,
2013-04-11 06:35:00,30.8,17.8,29.88,NW,315,0.2,0.2,58,0.00,,---,0.00,VWS V14.01,2013-04-11 12:35:00,
2013-04-11 06:40:00,31.0,18.0,29.88,NW,315,0.2,0.2,58,0.00,,---,0.00,VWS V14.01,2013-04-11 12:40:00,
2013-04-11 06:45:00,31.1,18.9,29.88,East,90,0.2,0.2,60,0.00,,---,0.00,VWS V14.01,2013-04-11 12:45:00,
2013-04-11 06:50:00,31.3,19.0,29.88,East,90,0.0,0.0,60,0.00,,---,0.00,VWS V14.01,2013-04-11 12:50:00,
2013-04-11 06:55:00,31.3,19.0,29.88,East,90,0.0,0.0,60,0.00,,---,0.00,VWS V14.01,2013-04-11 12:55:00,
2013-04-11 07:00:00,31.1,18.5,29.88,East,90,0.0,0.0,59,0.00,,---,0.00,VWS V14.01,2013-04-11 13:00:00,
2013-04-11 07:05:00,30.6,18.0,29.89,SW,225,0.0,0.0,59,0.00,,---,0.00,VWS V14.01,2013-04-11 13:05:00,
2013-04-11 07:10:00,30.6,18.8,29.89,SSE,158,0.0,0.0,61,0.00,,---,0.00,VWS V14.01,2013-04-11 13:10:00,
2013-04-11 07:15:00,30.8,19.3,29.89,SSE,158,0.0,0.0,62,0.00,,---,0.00,VWS V14.01,2013-04-11 13:15:00,
2013-04-11 07:20:00,31.1,19.6,29.89,SSE,158,0.0,0.0,62,0.00,,---,0.00,VWS V14.01,2013-04-11 13:20:00,
2013-04-11 07:25:00,32.6,21.0,29.89,SSE,158,0.0,0.0,62,0.00,,---,0.00,VWS V14.01,2013-04-11 13:25:00,
2013-04-11 07:30:00,35.3,22.8,29.89,East,90,0.2,0.2,60,0.00,,---,0.00,VWS V14.01,2013-04-11 13:30:00,
2013-04-11 07:35:00,36.7,20.8,29.89,East,90,0.2,0.2,52,0.00,,---,0.00,VWS V14.01,2013-04-11 13:35:00,
2013-04-11 07:40:00,37.8,21.8,29.90,East,90,0.4,0.4,52,0.00,,---,0.00,VWS V14.01,2013-04-11 13:40:00,
2013-04-11 07:45:00,39.2,23.1,29.90,East,90,0.2,0.2,52,0.00,,---,0.00,VWS V14.01,2013-04-11 13:45:00,
2013-04-11 07:50:00,40.7,23.0,29.90,East,90,0.0,0.0,49,0.00,,---,0.00,VWS V14.01,2013-04-11 13:50:00,
2013-04-11 07:55:00,41.4,24.6,29.90,East,90,0.0,0.0,51,0.00,,---,0.00,VWS V14.01,2013-04-11 13:55:00,
2013-04-11 08:00:00,42.8,22.4,29.90,West,270,0.0,0.0,44,0.00,,---,0.00,VWS V14.01,2013-04-11 14:00:00,
2013-04-11 08:05:00,42.3,19.7,29.90,South,180,0.2,0.2,40,0.00,,---,0.00,VWS V14.01,2013-04-11 14:05:00,
2013-04-11 08:10:00,42.5,21.0,29.90,West,270,0.7,0.7,42,0.00,,---,0.00,VWS V14.01,2013-04-11 14:10:00,
2013-04-11 08:15:00,43.2,19.9,29.90,NW,315,0.4,0.4,39,0.00,,---,0.00,VWS V14.01,2013-04-11 14:15:00,
2013-04-11 08:20:00,42.8,19.0,29.90,WNW,292,1.1,1.1,38,0.00,,---,0.00,VWS V14.01,2013-04-11 14:20:00,
2013-04-11 08:25:00,42.1,18.3,29.90,NNW,338,0.4,0.4,38,0.00,,---,0.00,VWS V14.01,2013-04-11 14:25:00,
2013-04-11 08:30:00,42.7,18.9,29.90,NW,315,3.8,3.8,38,0.00,,---,0.00,VWS V14.01,2013-04-11 14:30:00,
2013-04-11 08:35:00,42.8,19.0,29.91,NNW,338,1.3,1.3,38,0.00,,---,0.00,VWS V14.01,2013-04-11 14:35:00,
2013-04-11 08:40:00,42.8,18.4,29.91,North,0,2.7,2.7,37,0.00,,---,0.00,VWS V14.01,2013-04-11 14:40:00,
2013-04-11 08:45:00,42.8,17.7,29.91,North,0,8.3,8.3,36,0.00,,---,0.00,VWS V14.01,2013-04-11 14:45:00,
2013-04-11 08:50:00,43.9,19.3,29.91,NNE,22,4.0,4.0,37,0.00,,---,0.00,VWS V14.01,2013-04-11 14:50:00,
2013-04-11 08:55:00,43.9,16.7,29.92,NNW,338,5.4,5.4,33,0.00,,---,0.00,VWS V14.01,2013-04-11 14:55:00,
2013-04-11 09:00:00,44.3,19.0,29.92,North,0,0.2,0.2,36,0.00,,---,0.00,VWS V14.01,2013-04-11 15:00:00,
2013-04-11 09:05:00,45.4,19.4,29.92,NE,45,6.3,6.3,35,0.00,,---,0.00,VWS V14.01,2013-04-11 15:05:00,
2013-04-11 09:10:00,45.0,19.0,29.91,NNE,22,2.5,2.5,35,0.00,,---,0.00,VWS V14.01,2013-04-11 15:10:00,
2013-04-11 09:15:00,44.6,18.7,29.91,NNE,22,4.5,4.5,35,0.00,,---,0.00,VWS V14.01,2013-04-11 15:15:00,
2013-04-11 09:20:00,44.8,18.8,29.91,NNE,22,1.3,1.3,35,0.00,,---,0.00,VWS V14.01,2013-04-11 15:20:00,
2013-04-11 09:25:00,45.2,19.2,29.91,NNE,22,1.8,1.8,35,0.00,,---,0.00,VWS V14.01,2013-04-11 15:25:00,
2013-04-11 09:30:00,45.7,18.3,29.91,WNW,292,4.0,4.0,33,0.00,,---,0.00,VWS V14.01,2013-04-11 15:30:00,
2013-04-11 09:35:00,45.9,19.1,29.91,NW,315,5.4,5.4,34,0.00,,---,0.00,VWS V14.01,2013-04-11 15:35:00,
2013-04-11 09:40:00,46.3,19.5,29.91,NW,315,2.5,2.5,34,0.00,,---,0.00,VWS V14.01,2013-04-11 15:40:00,
2013-04-11 09:45:00,45.9,18.4,29.90,NNW,338,3.6,3.6,33,0.00,,---,0.00,VWS V14.01,2013-04-11 15:45:00,
2013-04-11 09:50:00,45.4,17.3,29.90,NW,315,7.2,7.2,32,0.00,,---,0.00,VWS V14.01,2013-04-11 15:50:00,
2013-04-11 09:55:00,45.4,18.0,29.90,NW,315,9.2,9.2,33,0.00,,---,0.00,VWS V14.01,2013-04-11 15:55:00,
2013-04-11 10:00:00,45.4,18.0,29.91,WNW,292,6.0,6.0,33,0.00,,---,0.00,VWS V14.01,2013-04-11 16:00:00,
2013-04-11 10:05:00,46.6,18.3,29.91,North,0,5.8,5.8,32,0.00,,---,0.00,VWS V14.01,2013-04-11 16:05:00,
2013-04-11 10:10:00,47.5,19.1,29.91,West,270,2.9,2.9,32,0.00,,---,0.00,VWS V14.01,2013-04-11 16:10:00,
2013-04-11 10:15:00,47.5,19.1,29.90,SW,225,0.7,0.7,32,0.00,,---,0.00,VWS V14.01,2013-04-11 16:15:00,
2013-04-11 10:20:00,48.6,19.4,29.90,North,0,1.6,1.6,31,0.00,,---,0.00,VWS V14.01,2013-04-11 16:20:00,
2013-04-11 10:25:00,49.0,19.7,29.90,North,0,2.9,2.9,31,0.00,,---,0.00,VWS V14.01,2013-04-11 16:25:00,
2013-04-11 10:30:00,49.0,19.7,29.90,West,270,1.6,1.6,31,0.00,,---,0.00,VWS V14.01,2013-04-11 16:30:00,
2013-04-11 10:35:00,48.6,19.4,29.90,North,0,5.8,5.8,31,0.00,,---,0.00,VWS V14.01,2013-04-11 16:35:00,
2013-04-11 10:40:00,48.2,19.0,29.90,NW,315,7.4,7.4,31,0.00,,---,0.00,VWS V14.01,2013-04-11 16:40:00,
2013-04-11 10:45:00,49.0,19.7,29.90,West,270,9.8,9.8,31,0.00,,---,0.00,VWS V14.01,2013-04-11 16:45:00,
2013-04-11 10:50:00,49.0,19.7,29.90,NW,315,8.3,8.3,31,0.00,,---,0.00,VWS V14.01,2013-04-11 16:50:00,
2013-04-11 10:55:00,49.3,19.2,29.90,North,0,3.6,3.6,30,0.00,,---,0.00,VWS V14.01,2013-04-11 16:55:00,
2013-04-11 11:00:00,50.0,19.0,29.90,NW,315,8.5,8.5,29,0.00,,---,0.00,VWS V14.01,2013-04-11 17:00:00,
2013-04-11 11:05:00,49.9,18.9,29.89,WNW,292,8.7,8.7,29,0.00,,---,0.00,VWS V14.01,2013-04-11 17:05:00,
2013-04-11 11:10:00,50.4,19.4,29.89,West,270,4.7,4.7,29,0.00,,---,0.00,VWS V14.01,2013-04-11 17:10:00,
2013-04-11 11:15:00,50.8,19.7,29.89,SSW,202,3.1,3.1,29,0.00,,---,0.00,VWS V14.01,2013-04-11 17:15:00,
2013-04-11 11:20:00,51.3,20.1,29.89,North,0,5.4,5.4,29,0.00,,---,0.00,VWS V14.01,2013-04-11 17:20:00,
2013-04-11 11:25:00,51.3,20.1,29.89,NW,315,4.3,4.3,29,0.00,,---,0.00,VWS V14.01,2013-04-11 17:25:00,
2013-04-11 11:30:00,51.7,20.5,29.89,NW,315,7.6,7.6,29,0.00,,---,0.00,VWS V14.01,2013-04-11 17:30:00,
2013-04-11 11:35:00,53.1,21.7,29.89,NNE,22,2.7,2.7,29,0.00,,---,0.00,VWS V14.01,2013-04-11 17:35:00,
2013-04-11 11:40:00,53.3,20.2,29.88,WSW,248,0.9,0.9,27,0.00,,---,0.00,VWS V14.01,2013-04-11 17:40:00,
2013-04-11 11:45:00,52.4,20.3,29.88,NNW,338,7.2,7.2,28,0.00,,---,0.00,VWS V14.01,2013-04-11 17:45:00,
2013-04-11 11:50:00,53.1,20.9,29.88,NNW,338,8.5,8.5,28,0.00,,---,0.00,VWS V14.01,2013-04-11 17:50:00,
2013-04-11 11:55:00,52.7,20.5,29.88,North,0,15.4,15.4,28,0.00,,---,0.00,VWS V14.01,2013-04-11 17:55:00,
2013-04-11 12:00:00,54.0,21.6,29.88,North,0,8.5,8.5,28,0.00,,---,0.00,VWS V14.01,2013-04-11 18:00:00,
2013-04-11 12:05:00,54.0,21.6,29.87,North,0,4.9,4.9,28,0.00,,---,0.00,VWS V14.01,2013-04-11 18:05:00,
2013-04-11 12:10:00,54.2,21.8,29.87,North,0,2.7,5.8,28,0.00,,---,0.00,VWS V14.01,2013-04-11 18:10:00,
2013-04-11 12:15:00,54.4,22.0,29.87,NNW,338,2.7,2.7,28,0.00,,---,0.00,VWS V14.01,2013-04-11 18:15:00,
2013-04-11 12:20:00,55.4,22.0,29.86,North,0,10.5,10.5,27,0.00,,---,0.00,VWS V14.01,2013-04-11 18:20:00,
2013-04-11 12:25:00,55.4,22.0,29.86,NNE,22,8.5,8.5,27,0.00,,---,0.00,VWS V14.01,2013-04-11 18:25:00,
2013-04-11 12:30:00,56.2,22.7,29.86,WNW,292,6.5,6.5,27,0.00,,---,0.00,VWS V14.01,2013-04-11 18:30:00,
2013-04-11 12:35:00,57.2,21.7,29.86,NNW,338,4.5,4.5,25,0.00,,---,0.00,VWS V14.01,2013-04-11 18:35:00,
2013-04-11 12:40:00,58.0,21.4,29.85,WNW,292,9.6,9.6,24,0.00,,---,0.00,VWS V14.01,2013-04-11 18:40:00,
2013-04-11 12:45:00,56.9,21.5,29.85,West,270,9.2,9.2,25,0.00,,---,0.00,VWS V14.01,2013-04-11 18:45:00,
2013-04-11 12:50:00,56.2,21.8,29.85,NNW,338,4.7,4.7,26,0.00,,---,0.00,VWS V14.01,2013-04-11 18:50:00,
2013-04-11 12:55:00,56.9,21.5,29.85,WNW,292,12.3,12.3,25,0.00,,---,0.00,VWS V14.01,2013-04-11 18:55:00,
2013-04-11 13:00:00,56.9,21.5,29.85,WNW,292,3.6,3.6,25,0.00,,---,0.00,VWS V14.01,2013-04-11 19:00:00,
2013-04-11 13:05:00,57.6,22.1,29.85,NNW,338,6.0,6.0,25,0.00,,---,0.00,VWS V14.01,2013-04-11 19:05:00,
2013-04-11 13:10:00,58.0,21.4,29.85,NW,315,7.8,7.8,24,0.00,,---,0.00,VWS V14.01,2013-04-11 19:10:00,
2013-04-11 13:15:00,57.1,21.6,29.85,NNW,338,3.4,3.4,25,0.00,,---,0.00,VWS V14.01,2013-04-11 19:15:00,
2013-04-11 13:20:00,57.4,21.9,29.84,North,0,4.3,4.3,25,0.00,,---,0.00,VWS V14.01,2013-04-11 19:20:00,
2013-04-11 13:25:00,57.6,21.1,29.84,NNE,22,4.7,4.7,24,0.00,,---,0.00,VWS V14.01,2013-04-11 19:25:00,
2013-04-11 13:30:00,58.7,22.0,29.84,NW,315,6.9,6.9,24,0.00,,---,0.00,VWS V14.01,2013-04-11 19:30:00,
2013-04-11 13:35:00,58.1,21.5,29.84,NW,315,4.7,4.7,24,0.00,,---,0.00,VWS V14.01,2013-04-11 19:35:00,
2013-04-11 13:40:00,57.8,21.3,29.84,WSW,248,6.9,6.9,24,0.00,,---,0.00,VWS V14.01,2013-04-11 19:40:00,
2013-04-11 13:45:00,58.7,23.0,29.84,NW,315,3.8,3.8,25,0.00,,---,0.00,VWS V14.01,2013-04-11 19:45:00,
2013-04-11 13:50:00,59.6,22.8,29.84,NW,315,9.2,9.2,24,0.00,,---,0.00,VWS V14.01,2013-04-11 19:50:00,
2013-04-11 13:55:00,59.4,22.6,29.83,West,270,8.7,8.7,24,0.00,,---,0.00,VWS V14.01,2013-04-11 19:55:00,
2013-04-11 14:00:00,59.8,23.9,29.83,NW,315,12.8,12.8,25,0.00,,---,0.00,VWS V14.01,2013-04-11 20:00:00,
2013-04-11 14:05:00,60.1,24.2,29.83,WNW,292,15.0,15.0,25,0.00,,---,0.00,VWS V14.01,2013-04-11 20:05:00,
2013-04-11 14:10:00,60.1,26.0,29.83,West,270,7.6,7.6,27,0.00,,---,0.00,VWS V14.01,2013-04-11 20:10:00,
2013-04-11 14:15:00,60.5,26.4,29.83,NNW,338,12.1,12.1,27,0.00,,---,0.00,VWS V14.01,2013-04-11 20:15:00,
2013-04-11 14:20:00,59.9,26.7,29.83,WNW,292,12.1,12.1,28,0.00,,---,0.00,VWS V14.01,2013-04-11 20:20:00,
2013-04-11 14:25:00,59.8,26.6,29.83,West,270,7.4,7.4,28,0.00,,---,0.00,VWS V14.01,2013-04-11 20:25:00,
2013-04-11 14:30:00,60.5,27.3,29.83,WSW,248,15.0,15.0,28,0.00,,---,0.00,VWS V14.01,2013-04-11 20:30:00,
2013-04-11 14:35:00,60.5,27.3,29.83,WNW,292,5.8,5.8,28,0.00,,---,0.00,VWS V14.01,2013-04-11 20:35:00,
2013-04-11 14:40:00,59.9,26.7,29.83,NW,315,9.2,9.2,28,0.00,,---,0.00,VWS V14.01,2013-04-11 20:40:00,
2013-04-11 14:45:00,60.1,27.8,29.82,NW,315,8.5,8.5,29,0.00,,---,0.00,VWS V14.01,2013-04-11 20:45:00,
2013-04-11 14:50:00,61.2,27.9,29.82,NW,315,7.6,7.6,28,0.00,,---,0.00,VWS V14.01,2013-04-11 20:50:00,
2013-04-11 14:55:00,60.8,27.5,29.82,WNW,292,8.5,8.5,28,0.00,,---,0.00,VWS V14.01,2013-04-11 20:55:00,
2013-04-11 15:00:00,61.6,28.2,29.81,WNW,292,6.9,8.7,28,0.00,,---,0.00,VWS V14.01,2013-04-11 21:00:00,
2013-04-11 15:05:00,61.4,28.0,29.81,WNW,292,12.1,12.1,28,0.00,,---,0.00,VWS V14.01,2013-04-11 21:05:00,
2013-04-11 15:10:00,62.1,27.8,29.81,WSW,248,6.9,6.9,27,0.00,,---,0.00,VWS V14.01,2013-04-11 21:10:00,
2013-04-11 15:15:00,62.1,27.8,29.81,WNW,292,10.5,10.5,27,0.00,,---,0.00,VWS V14.01,2013-04-11 21:15:00,
2013-04-11 15:20:00,63.0,28.5,29.81,NW,315,10.5,10.5,27,0.00,,---,0.00,VWS V14.01,2013-04-11 21:20:00,
2013-04-11 15:25:00,63.7,27.2,29.81,NW,315,9.8,9.8,25,0.00,,---,0.00,VWS V14.01,2013-04-11 21:25:00,
2013-04-11 15:30:00,63.2,28.7,29.81,WNW,292,11.9,11.9,27,0.00,,---,0.00,VWS V14.01,2013-04-11 21:30:00,
2013-04-11 15:35:00,63.2,28.7,29.81,NNW,338,9.4,9.4,27,0.00,,---,0.00,VWS V14.01,2013-04-11 21:35:00,
2013-04-11 15:40:00,63.7,28.2,29.81,NNW,338,13.4,13.4,26,0.00,,---,0.00,VWS V14.01,2013-04-11 21:40:00,
2013-04-11 15:45:00,63.7,29.1,29.80,WNW,292,8.5,8.5,27,0.00,,---,0.00,VWS V14.01,2013-04-11 21:45:00,
2013-04-11 15:50:00,62.5,28.1,29.80,WNW,292,5.4,5.4,27,0.00,,---,0.00,VWS V14.01,2013-04-11 21:50:00,
2013-04-11 15:55:00,61.6,28.2,29.80,NW,315,14.1,14.1,28,0.00,,---,0.00,VWS V14.01,2013-04-11 21:55:00,
2013-04-11 16:00:00,61.6,28.2,29.80,West,270,8.5,8.5,28,0.00,,---,0.00,VWS V14.01,2013-04-11 22:00:00,
2013-04-11 16:05:00,61.0,27.7,29.80,West,270,14.1,14.1,28,0.00,,---,0.00,VWS V14.01,2013-04-11 22:05:00,
2013-04-11 16:10:00,61.0,28.5,29.80,NW,315,11.9,11.9,29,0.00,,---,0.00,VWS V14.01,2013-04-11 22:10:00,
2013-04-11 16:15:00,62.3,28.8,29.79,WNW,292,9.6,9.6,28,0.00,,---,0.00,VWS V14.01,2013-04-11 22:15:00,
2013-04-11 16:20:00,62.1,27.8,29.79,WNW,292,8.7,8.7,27,0.00,,---,0.00,VWS V14.01,2013-04-11 22:20:00,
2013-04-11 16:25:00,61.6,27.3,29.79,NNW,338,6.0,6.0,27,0.00,,---,0.00,VWS V14.01,2013-04-11 22:25:00,
2013-04-11 16:30:00,61.7,27.4,29.79,NW,315,17.2,17.2,27,0.00,,---,0.00,VWS V14.01,2013-04-11 22:30:00,
2013-04-11 16:35:00,61.6,27.3,29.79,NNW,338,8.1,8.1,27,0.00,,---,0.00,VWS V14.01,2013-04-11 22:35:00,
2013-04-11 16:40:00,62.8,27.4,29.79,NNW,338,13.4,13.4,26,0.00,,---,0.00,VWS V14.01,2013-04-11 22:40:00,
2013-04-11 16:45:00,61.7,27.4,29.79,WNW,292,9.2,9.2,27,0.00,,---,0.00,VWS V14.01,2013-04-11 22:45:00,
2013-04-11 16:50:00,61.6,28.2,29.79,West,270,6.0,6.0,28,0.00,,---,0.00,VWS V14.01,2013-04-11 22:50:00,
2013-04-11 16:55:00,61.6,28.2,29.79,WNW,292,6.3,6.3,28,0.00,,---,0.00,VWS V14.01,2013-04-11 22:55:00,
2013-04-11 17:00:00,62.3,27.9,29.79,NW,315,8.1,8.1,27,0.00,,---,0.00,VWS V14.01,2013-04-11 23:00:00,
2013-04-11 17:05:00,62.8,28.4,29.79,NW,315,14.5,14.5,27,0.00,,---,0.00,VWS V14.01,2013-04-11 23:05:00,
2013-04-11 17:10:00,62.1,27.8,29.78,NNW,338,10.5,10.5,27,0.00,,---,0.00,VWS V14.01,2013-04-11 23:10:00,
2013-04-11 17:15:00,61.4,28.0,29.79,NNW,338,11.9,11.9,28,0.00,,---,0.00,VWS V14.01,2013-04-11 23:15:00,
2013-04-11 17:20:00,61.6,29.1,29.78,NNW,338,6.3,6.3,29,0.00,,---,0.00,VWS V14.01,2013-04-11 23:20:00,
2013-04-11 17:25:00,61.2,28.7,29.79,NW,315,7.4,7.4,29,0.00,,---,0.00,VWS V14.01,2013-04-11 23:25:00,
2013-04-11 17:30:00,61.6,29.1,29.79,North,0,6.9,6.9,29,0.00,,---,0.00,VWS V14.01,2013-04-11 23:30:00,
2013-04-11 17:35:00,61.2,28.7,29.79,North,0,12.1,12.1,29,0.00,,---,0.00,VWS V14.01,2013-04-11 23:35:00,
2013-04-11 17:40:00,60.7,29.1,29.79,North,0,7.4,7.4,30,0.00,,---,0.00,VWS V14.01,2013-04-11 23:40:00,
2013-04-11 17:45:00,60.5,28.9,29.79,NW,315,6.9,6.9,30,0.00,,---,0.00,VWS V14.01,2013-04-11 23:45:00,
2013-04-11 17:50:00,60.1,28.6,29.79,North,0,7.6,7.6,30,0.00,,---,0.00,VWS V14.01,2013-04-11 23:50:00,
2013-04-11 17:55:00,60.1,28.6,29.80,NNW,338,12.1,12.1,30,0.00,,---,0.00,VWS V14.01,2013-04-11 23:55:00,
2013-04-11 18:00:00,60.3,27.9,29.79,NW,315,9.8,9.8,29,0.00,,---,0.00,VWS V14.01,2013-04-12 00:00:00,
2013-04-11 18:05:00,59.8,28.3,29.80,NNW,338,5.6,5.6,30,0.00,,---,0.00,VWS V14.01,2013-04-12 00:05:00,
2013-04-11 18:10:00,59.8,28.3,29.80,NNE,22,4.3,4.3,30,0.00,,---,0.00,VWS V14.01,2013-04-12 00:10:00,
2013-04-11 18:15:00,59.8,28.3,29.80,NW,315,8.1,9.2,30,0.00,,---,0.00,VWS V14.01,2013-04-12 00:15:00,
2013-04-11 18:20:00,59.6,28.1,29.80,NNW,338,9.4,9.4,30,0.00,,---,0.00,VWS V14.01,2013-04-12 00:20:00,
2013-04-11 18:25:00,59.4,28.0,29.80,NW,315,10.1,10.1,30,0.00,,---,0.00,VWS V14.01,2013-04-12 00:25:00,
2013-04-11 18:30:00,59.8,28.3,29.80,NW,315,8.9,8.9,30,0.00,,---,0.00,VWS V14.01,2013-04-12 00:30:00,
2013-04-11 18:35:00,59.6,28.1,29.80,North,0,5.6,5.6,30,0.00,,---,0.00,VWS V14.01,2013-04-12 00:35:00,
2013-04-11 18:40:00,59.4,28.0,29.80,West,270,8.1,8.1,30,0.00,,---,0.00,VWS V14.01,2013-04-12 00:40:00,
2013-04-11 18:45:00,59.4,28.8,29.79,NNW,338,11.2,11.2,31,0.00,,---,0.00,VWS V14.01,2013-04-12 00:45:00,
2013-04-11 18:50:00,59.8,28.3,29.80,NW,315,10.7,10.7,30,0.00,,---,0.00,VWS V14.01,2013-04-12 00:50:00,
2013-04-11 18:55:00,59.4,28.8,29.80,WNW,292,5.8,5.8,31,0.00,,---,0.00,VWS V14.01,2013-04-12 00:55:00,
2013-04-11 19:00:00,59.2,28.6,29.80,NNW,338,9.4,9.4,31,0.00,,---,0.00,VWS V14.01,2013-04-12 01:00:00,
2013-04-11 19:05:00,59.4,28.8,29.80,WNW,292,9.8,9.8,31,0.00,,---,0.00,VWS V14.01,2013-04-12 01:05:00,
2013-04-11 19:10:00,59.2,28.6,29.80,NW,315,9.4,9.4,31,0.00,,---,0.00,VWS V14.01,2013-04-12 01:10:00,
2013-04-11 19:15:00,58.7,28.9,29.80,WNW,292,12.8,12.8,32,0.00,,---,0.00,VWS V14.01,2013-04-12 01:15:00,
2013-04-11 19:20:00,58.3,29.3,29.80,WNW,292,8.3,8.3,33,0.00,,---,0.00,VWS V14.01,2013-04-12 01:20:00,
2013-04-11 19:25:00,58.0,29.1,29.80,NW,315,9.6,9.6,33,0.00,,---,0.00,VWS V14.01,2013-04-12 01:25:00,
2013-04-11 19:30:00,57.6,29.5,29.80,WNW,292,4.9,4.9,34,0.00,,---,0.00,VWS V14.01,2013-04-12 01:30:00,
2013-04-11 19:35:00,57.4,29.3,29.81,WNW,292,6.7,6.7,34,0.00,,---,0.00,VWS V14.01,2013-04-12 01:35:00,
2013-04-11 19:40:00,57.2,28.4,29.81,NNW,338,7.4,7.4,33,0.00,,---,0.00,VWS V14.01,2013-04-12 01:40:00,
2013-04-11 19:45:00,57.2,28.4,29.80,NW,315,8.5,8.5,33,0.00,,---,0.00,VWS V14.01,2013-04-12 01:45:00,
2013-04-11 19:50:00,57.1,28.3,29.81,NW,315,9.2,9.2,33,0.00,,---,0.00,VWS V14.01,2013-04-12 01:50:00,
2013-04-11 19:55:00,56.9,28.1,29.81,NW,315,7.8,7.8,33,0.00,,---,0.00,VWS V14.01,2013-04-12 01:55:00,
2013-04-11 20:00:00,56.9,28.8,29.81,NNW,338,5.1,5.1,34,0.00,,---,0.00,VWS V14.01,2013-04-12 02:00:00,
2013-04-11 20:05:00,56.7,28.7,29.81,West,270,9.8,9.8,34,0.00,,---,0.00,VWS V14.01,2013-04-12 02:05:00,
2013-04-11 20:10:00,56.5,28.5,29.81,NNW,338,6.0,6.0,34,0.00,,---,0.00,VWS V14.01,2013-04-12 02:10:00,
2013-04-11 20:15:00,56.5,29.9,29.81,WNW,292,6.7,6.7,36,0.00,,---,0.00,VWS V14.01,2013-04-12 02:15:00,
2013-04-11 20:20:00,56.5,29.9,29.81,NNW,338,6.5,6.5,36,0.00,,---,0.00,VWS V14.01,2013-04-12 02:20:00,
2013-04-11 20:25:00,56.3,29.7,29.81,NNW,338,8.7,8.7,36,0.00,,---,0.00,VWS V14.01,2013-04-12 02:25:00,
2013-04-11 20:30:00,56.2,29.6,29.82,West,270,4.9,4.9,36,0.00,,---,0.00,VWS V14.01,2013-04-12 02:30:00,
2013-04-11 20:35:00,56.0,30.1,29.82,NW,315,5.1,5.1,37,0.00,,---,0.00,VWS V14.01,2013-04-12 02:35:00,
2013-04-11 20:40:00,55.8,29.9,29.82,NW,315,5.8,5.8,37,0.00,,---,0.00,VWS V14.01,2013-04-12 02:40:00,
2013-04-11 20:45:00,55.8,29.9,29.82,NNE,22,4.0,4.0,37,0.00,,---,0.00,VWS V14.01,2013-04-12 02:45:00,
2013-04-11 20:50:00,55.6,29.8,29.82,NW,315,3.4,3.4,37,0.00,,---,0.00,VWS V14.01,2013-04-12 02:50:00,
2013-04-11 20:55:00,55.6,29.8,29.83,NNW,338,2.9,2.9,37,0.00,,---,0.00,VWS V14.01,2013-04-12 02:55:00,
2013-04-11 21:00:00,55.4,29.6,29.83,North,0,6.3,6.3,37,0.00,,---,0.00,VWS V14.01,2013-04-12 03:00:00,
2013-04-11 21:05:00,55.4,29.6,29.83,North,0,2.5,2.5,37,0.00,,---,0.00,VWS V14.01,2013-04-12 03:05:00,
2013-04-11 21:10:00,55.3,29.5,29.83,North,0,2.5,2.5,37,0.00,,---,0.00,VWS V14.01,2013-04-12 03:10:00,
2013-04-11 21:15:00,55.1,30.0,29.83,North,0,2.7,2.7,38,0.00,,---,0.00,VWS V14.01,2013-04-12 03:15:00,
2013-04-11 21:20:00,55.1,30.0,29.83,NNW,338,4.5,4.5,38,0.00,,---,0.00,VWS V14.01,2013-04-12 03:20:00,
2013-04-11 21:25:00,54.9,29.8,29.83,NNW,338,5.4,5.4,38,0.00,,---,0.00,VWS V14.01,2013-04-12 03:25:00,
2013-04-11 21:30:00,54.9,29.8,29.83,NNW,338,8.5,8.5,38,0.00,,---,0.00,VWS V14.01,2013-04-12 03:30:00,
2013-04-11 21:35:00,54.7,29.6,29.83,NW,315,3.8,3.8,38,0.00,,---,0.00,VWS V14.01,2013-04-12 03:35:00,
2013-04-11 21:40:00,54.7,29.6,29.84,NW,315,2.7,2.7,38,0.00,,---,0.00,VWS V14.01,2013-04-12 03:40:00,
2013-04-11 21:45:00,54.7,29.6,29.84,WNW,292,4.0,4.0,38,0.00,,---,0.00,VWS V14.01,2013-04-12 03:45:00,
2013-04-11 21:50:00,54.7,29.6,29.84,North,0,4.7,4.7,38,0.00,,---,0.00,VWS V14.01,2013-04-12 03:50:00,
2013-04-11 21:55:00,54.5,29.4,29.84,NNW,338,6.5,6.5,38,0.00,,---,0.00,VWS V14.01,2013-04-12 03:55:00,
2013-04-11 22:00:00,54.5,29.4,29.85,NW,315,4.0,4.0,38,0.00,,---,0.00,VWS V14.01,2013-04-12 04:00:00,
2013-04-11 22:05:00,54.4,29.3,29.85,North,0,4.5,4.5,38,0.00,,---,0.00,VWS V14.01,2013-04-12 04:05:00,
2013-04-11 22:10:00,54.4,29.3,29.85,NNW,338,4.9,4.9,38,0.00,,---,0.00,VWS V14.01,2013-04-12 04:10:00,
2013-04-11 22:15:00,54.0,29.0,29.85,NNW,338,2.7,2.7,38,0.00,,---,0.00,VWS V14.01,2013-04-12 04:15:00,
2013-04-11 22:20:00,54.0,29.6,29.85,NW,315,1.3,1.3,39,0.00,,---,0.00,VWS V14.01,2013-04-12 04:20:00,
2013-04-11 22:25:00,53.8,29.4,29.85,NNW,338,3.8,3.8,39,0.00,,---,0.00,VWS V14.01,2013-04-12 04:25:00,
2013-04-11 22:30:00,53.6,29.3,29.85,NNW,338,3.6,3.6,39,0.00,,---,0.00,VWS V14.01,2013-04-12 04:30:00,
2013-04-11 22:35:00,53.6,29.3,29.85,NW,315,7.4,7.4,39,0.00,,---,0.00,VWS V14.01,2013-04-12 04:35:00,
2013-04-11 22:40:00,53.6,29.3,29.85,NW,315,5.6,5.6,39,0.00,,---,0.00,VWS V14.01,2013-04-12 04:40:00,
2013-04-11 22:45:00,53.6,29.3,29.85,NW,315,4.3,4.3,39,0.00,,---,0.00,VWS V14.01,2013-04-12 04:45:00,
2013-04-11 22:50:00,53.5,29.2,29.85,NW,315,7.2,7.2,39,0.00,,---,0.00,VWS V14.01,2013-04-12 04:50:00,
2013-04-11 22:55:00,53.3,29.0,29.85,NNW,338,6.5,6.5,39,0.00,,---,0.00,VWS V14.01,2013-04-12 04:55:00,
2013-04-11 23:00:00,53.1,29.4,29.85,NW,315,2.9,2.9,40,0.00,,---,0.00,VWS V14.01,2013-04-12 05:00:00,
2013-04-11 23:05:00,52.9,29.2,29.85,NW,315,3.4,3.4,40,0.00,,---,0.00,VWS V14.01,2013-04-12 05:05:00,
2013-04-11 23:10:00,52.6,29.0,29.86,NNW,338,4.3,4.3,40,0.00,,---,0.00,VWS V14.01,2013-04-12 05:10:00,
2013-04-11 23:15:00,52.4,29.4,29.86,WNW,292,3.4,3.4,41,0.00,,---,0.00,VWS V14.01,2013-04-12 05:15:00,
2013-04-11 23:20:00,52.2,29.2,29.86,WNW,292,3.8,3.8,41,0.00,,---,0.00,VWS V14.01,2013-04-12 05:20:00,
2013-04-11 23:25:00,51.8,28.9,29.85,NNW,338,3.4,3.4,41,0.00,,---,0.00,VWS V14.01,2013-04-12 05:25:00,
2013-04-11 23:30:00,51.7,28.8,29.85,NNW,338,0.7,0.7,41,0.00,,---,0.00,VWS V14.01,2013-04-12 05:30:00,
2013-04-11 23:35:00,51.5,28.6,29.85,North,0,1.3,1.3,41,0.00,,---,0.00,VWS V14.01,2013-04-12 05:35:00,
2013-04-11 23:40:00,51.5,28.6,29.85,North,0,0.9,0.9,41,0.00,,---,0.00,VWS V14.01,2013-04-12 05:40:00,
2013-04-11 23:45:00,51.3,28.4,29.85,North,0,2.2,2.2,41,0.00,,---,0.00,VWS V14.01,2013-04-12 05:45:00,
2013-04-11 23:50:00,51.3,28.4,29.85,NNW,338,2.5,2.5,41,0.00,,---,0.00,VWS V14.01,2013-04-12 05:50:00,
2013-04-11 23:55:00,51.3,29.0,29.86,NW,315,2.7,2.7,42,0.00,,---,0.00,VWS V14.01,2013-04-12 05:55:00,